Sw Cap Ferrat I — 3FZK6 — position and weather

sailwx.info

Track history (hours):
 
Tides and Currents Weather Stations Pressure Air Temp Water Temp Dewpoint Dewpoint Depression Visibility Wind Speed Wind Dir Waves Ship Positions

Sw Cap Ferrat I

Last reported at 2016-Aug-14 13:19 UTC. Time now 2016-Aug-28 00:31 UTC.
Position N 26°21' W 078°53'.
Warning: this ship's position is 13 days out of date.

Length 183 m; draft 7.2 m.

Type: Ship (hazmat cat D). MMSI: 374419000.

Date/timePositionNaut miles runAvg speedWind from/ knotsBaromVisibWave heightAir tempDewpointWater temp
2016-Aug-14 13:19N 26°21' W 078°53'  
2016-Aug-10 15:31N 18°36' W 066°12'10 9.9
2016-Aug-10 14:33N 18°28' W 066°07'1 1.1
2016-Aug-10 13:33N 18°27' W 066°06'0 0.1
2016-Aug-10 12:33N 18°27' W 066°06'0 0.0
2016-Aug-10 11:34N 18°27' W 066°06'0 0.1
2016-Aug-10 10:33N 18°27' W 066°06'0 0.0
2016-Aug-10 09:34N 18°27' W 066°06'4 4.2
2016-Aug-10 08:33N 18°31' W 066°08'7 7.0
2016-Aug-10 07:34N 18°37' W 066°11'2 2.3
2016-Aug-10 06:34N 18°39' W 066°13'61 5.4
2016-Aug-09 19:14N 17°52' W 066°53'812.2
2016-Aug-09 18:33N 17°56' W 066°46'  
2016-Aug-07 11:06N 17°60' W 066°46'1 2.7
2016-Aug-07 10:33N 17°58' W 066°46'8 8.3
2016-Aug-07 09:34N 17°50' W 066°45'6 5.8
2016-Aug-07 08:33N 17°44' W 066°45'1 0.7
2016-Aug-07 07:33N 17°44' W 066°44'1 0.7
2016-Aug-07 06:34N 17°43' W 066°43'1 0.7
2016-Aug-07 04:33N 17°43' W 066°42'1 0.6
2016-Aug-07 03:33N 17°43' W 066°41'1 0.5
2016-Aug-07 02:34N 17°44' W 066°41'4 4.3
2016-Aug-07 01:33N 17°45' W 066°45'1 1.3
2016-Aug-07 00:33N 17°44' W 066°46'1 0.7
2016-Aug-06 23:33N 17°44' W 066°46'1 0.8
2016-Aug-06 22:33N 17°43' W 066°45'1 0.9
2016-Aug-06 21:33N 17°43' W 066°44'1 0.9
2016-Aug-06 20:33N 17°42' W 066°44'2 1.9
2016-Aug-06 19:33N 17°44' W 066°43'8 8.4
2016-Aug-06 18:33N 17°53' W 066°43'  
Track history (hours):
 
Tides and Currents Weather Stations Pressure Air Temp Water Temp Dewpoint Dewpoint Depression Visibility Wind Speed Wind Dir Waves Ship Positions

Sw Cap Ferrat I

Last reported at 2016-Aug-14 13:19 UTC. Time now 2016-Aug-28 00:31 UTC.
Position N 26°21' W 078°53'.
Warning: this ship's position is 13 days out of date.

Length 183 m; draft 7.2 m.

Type: Ship (hazmat cat D). MMSI: 374419000.

Date/timePositionNaut miles runAvg speedWind from/ knotsBaromVisibWave heightAir tempDewpointWater temp
2016-Aug-14 13:19N 26°21' W 078°53'  
2016-Aug-10 15:31N 18°36' W 066°12'10 9.9
2016-Aug-10 14:33N 18°28' W 066°07'1 1.1
2016-Aug-10 13:33N 18°27' W 066°06'0 0.1
2016-Aug-10 12:33N 18°27' W 066°06'0 0.0
2016-Aug-10 11:34N 18°27' W 066°06'0 0.1
2016-Aug-10 10:33N 18°27' W 066°06'0 0.0
2016-Aug-10 09:34N 18°27' W 066°06'4 4.2
2016-Aug-10 08:33N 18°31' W 066°08'7 7.0
2016-Aug-10 07:34N 18°37' W 066°11'2 2.3
2016-Aug-10 06:34N 18°39' W 066°13'61 5.4
2016-Aug-09 19:14N 17°52' W 066°53'812.2
2016-Aug-09 18:33N 17°56' W 066°46'  
2016-Aug-07 11:06N 17°60' W 066°46'1 2.7
2016-Aug-07 10:33N 17°58' W 066°46'8 8.3
2016-Aug-07 09:34N 17°50' W 066°45'6 5.8
2016-Aug-07 08:33N 17°44' W 066°45'1 0.7
2016-Aug-07 07:33N 17°44' W 066°44'1 0.7
2016-Aug-07 06:34N 17°43' W 066°43'1 0.7
2016-Aug-07 04:33N 17°43' W 066°42'1 0.6
2016-Aug-07 03:33N 17°43' W 066°41'1 0.5
2016-Aug-07 02:34N 17°44' W 066°41'4 4.3
2016-Aug-07 01:33N 17°45' W 066°45'1 1.3
2016-Aug-07 00:33N 17°44' W 066°46'1 0.7
2016-Aug-06 23:33N 17°44' W 066°46'1 0.8
2016-Aug-06 22:33N 17°43' W 066°45'1 0.9
2016-Aug-06 21:33N 17°43' W 066°44'1 0.9
2016-Aug-06 20:33N 17°42' W 066°44'2 1.9
2016-Aug-06 19:33N 17°44' W 066°43'8 8.4
2016-Aug-06 18:33N 17°53' W 066°43'  

Dump ship's entire track history